Welcome to our new website - Welkom op onze vernieuwde website - Bienvenue sur notre nouveau site web - Willkommen auf unserer neuen Website
Check our progress frequently. Prüfen Sie unsere Fortschritte regelmäßig. Consultez notre progression fréquemment. Komt u straks nog eens terug
Mist van: 22-01-2020 00:59 tot: 12:59 waarschuwing voor: Mist niveau: Geel info button
Sneeuw/IJzel/Bevriezing van: 22-01-2020 00:59 tot: 13:59 waarschuwing voor: Sneeuw/IJzel/Bevriezing niveau: Geel info button

waarschuwing voor winterse neerslag Meer informatie rain snow radar


Bezoek ook deze websites:

Template documentation
and downloads

And another site


U vindt ons ook hier:

UK Metoffice

WeatherCloud

Weather Underground

AWEKAS



Select another period ( hide this area )

Eenheden Periode Custom range Directly to
Metrisch Engels Beide
Dagelijkse Wekelijkse Maandelijkse Jaarlijkse
use both date-selectors for a custom range
previous Dag
With this date

WeatherUnderground graphs for this period ( click here )


Warning: Division by zero in /customers/a/f/b/meteoassenede.be/httpd.www/weather28/wu/WU-History4.php on line 835
Dagelijkse Samenvatting Woensdag 22 januari 2020
Tijd Temp. ( °C ) Dew pt. ( °C ) Wind ( km/h ) van Windvlaag ( km/h ) Luchtdruk ( hPa ) Humid.( % ) Rainrate ( cm ) Zonneschijn ( W/m2 )
Hoog0,1 -0,2 6,4 ZW ( 53/109 ) 8,0 1039,2 98 - 0
Gemiddeld-0,3 -0,7 2,0 Kalm #19/55 4,2 1038,0 97 - NAN #0/55
Laag-0,6 -1,0 -   0,0 1036,8 97 -  
Dagelijkse Tabular details for Woensdag 22 januari 2020
Tijd Temp. ( °C ) Dew pt. ( °C ) Wind ( km/h ) van Windvlaag ( km/h ) Luchtdruk ( hPa ) Humid.( % ) Rainrate ( cm ) Zonneschijn ( W/m2 )
00:00 -0,4 -0,8   Kalm 1,6 1039,2 97 - -
00:05 -0,4 -0,8   Kalm 1,6 1039,2 97 - -
00:10 -0,3 -0,7   Kalm   1038,8 97 - -
00:15 -0,4 -0,8   Kalm 3,2 1039,2 97 - -
00:20 -0,3 -0,7   Kalm   1039,2 97 - -
00:25 -0,3 -0,7 1,4 NW 1,6 1039,2 97 - -
00:31 -0,3 -0,7   Kalm 1,6 1039,2 97 - -
00:35 -0,3 -0,7 1,4 NW 1,6 1038,8 97 - -
00:40 -0,3 -0,7   Kalm   1038,8 97 - -
00:45 -0,3 -0,7   Kalm 1,6 1038,8 97 - -
00:50 -0,4 -0,8 3,2 NW 3,2 1038,8 97 - -
00:55 -0,4 -0,8   Kalm   1038,8 97 - -
01:00 -0,3 -0,7   Kalm 3,2 1038,8 97 - -
01:05 -0,3 -0,7 3,2 WZW 4,8 1038,8 97 - -
01:10 -0,3 -0,7 1,4 WZW 3,2 1038,5 97 - -
01:15 -0,3 -0,7 1,4 WZW 3,2 1038,5 97 - -
01:20 -0,3 -0,7   Kalm 4,8 1038,1 97 - -
01:25 -0,4 -0,8 3,2 WZW 6,4 1038,1 97 - -
01:30 -0,4 -0,8 3,2 WZW 4,8 1038,1 97 - -
01:35 -0,5 -0,9   Kalm 6,4 1038,1 97 - -
01:40 -0,5 -0,9   Kalm 3,2 1038,1 97 - -
01:46 -0,5 -0,9   Kalm 4,8 1038,1 97 - -
01:50 -0,5 -0,9   Kalm 3,2 1038,1 97 - -
01:55 -0,6 -1,0   Kalm 3,2 1038,1 97 - -
02:00 -0,6 -1,0 1,4 WZW 4,8 1038,1 97 - -
02:05 -0,6 -1,0 3,2 WZW 4,8 1038,1 97 - -
02:10 -0,6 -1,0   Kalm 6,4 1038,1 97 - -
02:15 -0,5 -0,9 3,2 WZW 4,8 1037,8 97 - -
02:20 -0,6 -1,0 4,7 WZW 4,8 1037,8 97 - -
02:26 -0,5 -0,9   Kalm 4,8 1037,8 97 - -
02:30 -0,5 -0,9 3,2 WZW 6,4 1037,8 97 - -
02:35 -0,5 -0,9 3,2 WZW 4,8 1037,8 97 - -
02:40 -0,5 -0,9 3,2 WZW 4,8 1037,8 97 - -
02:45 -0,5 -0,9 4,7 WZW 6,4 1037,8 97 - -
02:50 -0,4 -0,8 6,4 WZW 8,0 1037,5 97 - -
02:55 -0,4 -0,8 4,7 WZW 4,8 1037,8 97 - -
03:00 -0,4 -0,8 3,2 ZW 8,0 1037,5 97 - -
03:05 -0,3 -0,7 1,4 ZW 6,4 1037,5 97 - -
03:10 -0,3 -0,6 1,4 ZW 6,4 1037,5 98 - -
03:15 -0,3 -0,6 3,2 ZW 4,8 1037,5 98 - -
03:20 -0,3 -0,6 3,2 ZW 4,8 1037,5 98 - -
03:25 -0,2 -0,5 4,7 ZW 6,4 1037,5 98 - -
03:30 -0,2 -0,5 1,4 ZW 3,2 1037,5 98 - -
03:35 -0,2 -0,5 4,7 ZW 6,4 1037,5 98 - -
03:40 -0,2 -0,5 4,7 ZW 6,4 1037,5 98 - -
03:45 -0,2 -0,5 4,7 ZW 6,4 1037,1 98 - -
03:50 -0,2 -0,5 1,4 ZW 4,8 1037,1 98 - -
03:55 -0,1 -0,4 3,2 ZW 4,8 1037,1 98 - -
04:00 -0,1 -0,4 3,2 ZW 4,8 1037,1 98 - -
04:05 0,0 -0,3   Kalm 4,8 1037,1 98 - -
04:10 0,0 -0,3 1,4 ZW 3,2 1037,1 98 - -
04:15 0,1 -0,3 1,4 ZW 6,4 1037,1 97 - -
04:20 0,1 -0,2 1,4 ZW 3,2 1037,1 98 - -
04:25 0,1 -0,2 4,7 ZW 6,4 1037,1 98 - -
04:30 0,1 -0,2 3,2 ZW 3,2 1036,8 98 - -
Dagelijkse Samenvatting Woensdag 22 januari 2020
Tijd Temp. ( °C ) Dew pt. ( °C ) Wind ( km/h ) van Windvlaag ( km/h ) Luchtdruk ( hPa ) Humid.( % ) Rainrate ( cm ) Zonneschijn ( W/m2 )
Hoog0,1 -0,2 6,4 ZW ( 53/109 ) 8,0 1039,2 98 - 0
Gemiddeld-0,3 -0,7 2,0 Kalm #19/55 4,2 1038,0 97 - NAN #0/55
Laag-0,6 -1,0 -   0,0 1036,8 97 -  
Dagelijkse Tabular details for Woensdag 22 januari 2020
Tijd Temp. ( °C ) Dew pt. ( °C ) Wind ( km/h ) van Windvlaag ( km/h ) Luchtdruk ( hPa ) Humid.( % ) Rainrate ( cm ) Zonneschijn ( W/m2 )
00:00 -0,4 -0,8   Kalm 1,6 1039,2 97 - -
00:05 -0,4 -0,8   Kalm 1,6 1039,2 97 - -
00:10 -0,3 -0,7   Kalm   1038,8 97 - -
00:15 -0,4 -0,8   Kalm 3,2 1039,2 97 - -
00:20 -0,3 -0,7   Kalm   1039,2 97 - -
00:25 -0,3 -0,7 1,4 NW 1,6 1039,2 97 - -
00:31 -0,3 -0,7   Kalm 1,6 1039,2 97 - -
00:35 -0,3 -0,7 1,4 NW 1,6 1038,8 97 - -
00:40 -0,3 -0,7   Kalm   1038,8 97 - -
00:45 -0,3 -0,7   Kalm 1,6 1038,8 97 - -
00:50 -0,4 -0,8 3,2 NW 3,2 1038,8 97 - -
00:55 -0,4 -0,8   Kalm   1038,8 97 - -
01:00 -0,3 -0,7   Kalm 3,2 1038,8 97 - -
01:05 -0,3 -0,7 3,2 WZW 4,8 1038,8 97 - -
01:10 -0,3 -0,7 1,4 WZW 3,2 1038,5 97 - -
01:15 -0,3 -0,7 1,4 WZW 3,2 1038,5 97 - -
01:20 -0,3 -0,7   Kalm 4,8 1038,1 97 - -
01:25 -0,4 -0,8 3,2 WZW 6,4 1038,1 97 - -
01:30 -0,4 -0,8 3,2 WZW 4,8 1038,1 97 - -
01:35 -0,5 -0,9   Kalm 6,4 1038,1 97 - -
01:40 -0,5 -0,9   Kalm 3,2 1038,1 97 - -
01:46 -0,5 -0,9   Kalm 4,8 1038,1 97 - -
01:50 -0,5 -0,9   Kalm 3,2 1038,1 97 - -
01:55 -0,6 -1,0   Kalm 3,2 1038,1 97 - -
02:00 -0,6 -1,0 1,4 WZW 4,8 1038,1 97 - -
02:05 -0,6 -1,0 3,2 WZW 4,8 1038,1 97 - -
02:10 -0,6 -1,0   Kalm 6,4 1038,1 97 - -
02:15 -0,5 -0,9 3,2 WZW 4,8 1037,8 97 - -
02:20 -0,6 -1,0 4,7 WZW 4,8 1037,8 97 - -
02:26 -0,5 -0,9   Kalm 4,8 1037,8 97 - -
02:30 -0,5 -0,9 3,2 WZW 6,4 1037,8 97 - -
02:35 -0,5 -0,9 3,2 WZW 4,8 1037,8 97 - -
02:40 -0,5 -0,9 3,2 WZW 4,8 1037,8 97 - -
02:45 -0,5 -0,9 4,7 WZW 6,4 1037,8 97 - -
02:50 -0,4 -0,8 6,4 WZW 8,0 1037,5 97 - -
02:55 -0,4 -0,8 4,7 WZW 4,8 1037,8 97 - -
03:00 -0,4 -0,8 3,2 ZW 8,0 1037,5 97 - -
03:05 -0,3 -0,7 1,4 ZW 6,4 1037,5 97 - -
03:10 -0,3 -0,6 1,4 ZW 6,4 1037,5 98 - -
03:15 -0,3 -0,6 3,2 ZW 4,8 1037,5 98 - -
03:20 -0,3 -0,6 3,2 ZW 4,8 1037,5 98 - -
03:25 -0,2 -0,5 4,7 ZW 6,4 1037,5 98 - -
03:30 -0,2 -0,5 1,4 ZW 3,2 1037,5 98 - -
03:35 -0,2 -0,5 4,7 ZW 6,4 1037,5 98 - -
03:40 -0,2 -0,5 4,7 ZW 6,4 1037,5 98 - -
03:45 -0,2 -0,5 4,7 ZW 6,4 1037,1 98 - -
03:50 -0,2 -0,5 1,4 ZW 4,8 1037,1 98 - -
03:55 -0,1 -0,4 3,2 ZW 4,8 1037,1 98 - -
04:00 -0,1 -0,4 3,2 ZW 4,8 1037,1 98 - -
04:05 0,0 -0,3   Kalm 4,8 1037,1 98 - -
04:10 0,0 -0,3 1,4 ZW 3,2 1037,1 98 - -
04:15 0,1 -0,3 1,4 ZW 6,4 1037,1 97 - -
04:20 0,1 -0,2 1,4 ZW 3,2 1037,1 98 - -
04:25 0,1 -0,2 4,7 ZW 6,4 1037,1 98 - -
04:30 0,1 -0,2 3,2 ZW 3,2 1036,8 98 - -

Download your copy of this data-set  here

Our weather-data as stored at Weather Underground. Script ontwikkeld door Jim McMurry. Aangepast voor de template door Leuven-Template.eu

Apparatuur in gebruik:

Weerstation
Davis Vantage Pro2

Weerprogramma
Meteobridge

Weercomputer
TP-Link TL-MR3020

Webleverancier
One.com

Davis Vantage Pro2

Meteobridge

TP-Link TL-MR3020

One.com